sensor_id;sensor_type;location;lat;lon;timestamp;P1;durP1;ratioP1;P2;durP2;ratioP2
41436;SDS011;27178;49.460;10.850;2023-05-29T00:02:28;3.95;;;2.78;;
41436;SDS011;27178;49.460;10.850;2023-05-29T00:04:56;3.35;;;2.65;;
41436;SDS011;27178;49.460;10.850;2023-05-29T00:07:24;4.88;;;2.95;;
41436;SDS011;27178;49.460;10.850;2023-05-29T00:09:53;3.80;;;3.10;;
41436;SDS011;27178;49.460;10.850;2023-05-29T00:12:21;4.45;;;3.05;;
41436;SDS011;27178;49.460;10.850;2023-05-29T00:14:52;3.55;;;2.63;;
41436;SDS011;27178;49.460;10.850;2023-05-29T00:17:20;5.55;;;2.80;;
41436;SDS011;27178;49.460;10.850;2023-05-29T00:19:48;2.72;;;2.53;;
41436;SDS011;27178;49.460;10.850;2023-05-29T00:22:17;3.10;;;2.80;;
41436;SDS011;27178;49.460;10.850;2023-05-29T00:24:45;2.90;;;2.70;;
41436;SDS011;27178;49.460;10.850;2023-05-29T00:27:14;3.45;;;2.72;;
41436;SDS011;27178;49.460;10.850;2023-05-29T00:29:42;3.08;;;2.67;;
41436;SDS011;27178;49.460;10.850;2023-05-29T00:32:12;3.35;;;2.58;;
41436;SDS011;27178;49.460;10.850;2023-05-29T00:34:40;4.53;;;3.28;;
41436;SDS011;27178;49.460;10.850;2023-05-29T00:37:09;4.00;;;2.58;;
41436;SDS011;27178;49.460;10.850;2023-05-29T00:39:37;2.50;;;2.30;;
41436;SDS011;27178;49.460;10.850;2023-05-29T00:42:06;3.17;;;2.88;;
41436;SDS011;27178;49.460;10.850;2023-05-29T00:44:34;3.38;;;2.80;;
41436;SDS011;27178;49.460;10.850;2023-05-29T00:47:03;4.40;;;3.15;;
41436;SDS011;27178;49.460;10.850;2023-05-29T00:49:33;3.88;;;3.10;;
41436;SDS011;27178;49.460;10.850;2023-05-29T00:52:03;4.10;;;3.22;;
41436;SDS011;27178;49.460;10.850;2023-05-29T00:54:34;3.50;;;2.72;;
41436;SDS011;27178;49.460;10.850;2023-05-29T00:57:03;2.85;;;2.55;;
41436;SDS011;27178;49.460;10.850;2023-05-29T00:59:33;4.30;;;2.83;;
41436;SDS011;27178;49.460;10.850;2023-05-29T01:02:02;3.45;;;2.50;;
41436;SDS011;27178;49.460;10.850;2023-05-29T01:04:31;3.53;;;2.58;;
41436;SDS011;27178;49.460;10.850;2023-05-29T01:07:01;4.35;;;2.60;;
41436;SDS011;27178;49.460;10.850;2023-05-29T01:09:30;2.88;;;2.67;;
41436;SDS011;27178;49.460;10.850;2023-05-29T01:12:03;4.00;;;3.10;;
41436;SDS011;27178;49.460;10.850;2023-05-29T01:14:43;3.03;;;2.67;;
41436;SDS011;27178;49.460;10.850;2023-05-29T01:17:17;3.67;;;2.65;;
41436;SDS011;27178;49.460;10.850;2023-05-29T01:20:02;3.50;;;2.95;;
41436;SDS011;27178;49.460;10.850;2023-05-29T01:23:06;5.38;;;3.10;;
41436;SDS011;27178;49.460;10.850;2023-05-29T01:28:37;3.63;;;2.83;;
41436;SDS011;27178;49.460;10.850;2023-05-29T01:31:09;3.42;;;2.83;;
41436;SDS011;27178;49.460;10.850;2023-05-29T01:33:39;4.38;;;2.88;;
41436;SDS011;27178;49.460;10.850;2023-05-29T01:36:08;3.22;;;2.85;;
41436;SDS011;27178;49.460;10.850;2023-05-29T01:38:37;4.25;;;3.03;;
41436;SDS011;27178;49.460;10.850;2023-05-29T01:41:05;4.93;;;2.97;;
41436;SDS011;27178;49.460;10.850;2023-05-29T01:43:34;2.90;;;2.50;;
41436;SDS011;27178;49.460;10.850;2023-05-29T01:46:04;3.53;;;2.70;;
41436;SDS011;27178;49.460;10.850;2023-05-29T01:48:32;4.55;;;2.83;;
41436;SDS011;27178;49.460;10.850;2023-05-29T01:51:01;3.05;;;2.70;;
41436;SDS011;27178;49.460;10.850;2023-05-29T01:53:29;2.70;;;2.50;;
41436;SDS011;27178;49.460;10.850;2023-05-29T01:55:58;3.53;;;2.72;;
41436;SDS011;27178;49.460;10.850;2023-05-29T01:58:26;3.45;;;2.85;;
41436;SDS011;27178;49.460;10.850;2023-05-29T02:00:57;5.15;;;2.92;;
41436;SDS011;27178;49.460;10.850;2023-05-29T02:03:27;3.78;;;2.95;;
41436;SDS011;27178;49.460;10.850;2023-05-29T02:05:56;2.97;;;2.70;;
41436;SDS011;27178;49.460;10.850;2023-05-29T02:08:25;4.38;;;2.80;;
41436;SDS011;27178;49.460;10.850;2023-05-29T02:10:54;3.50;;;3.00;;
41436;SDS011;27178;49.460;10.850;2023-05-29T02:13:22;2.75;;;2.38;;
41436;SDS011;27178;49.460;10.850;2023-05-29T02:15:51;4.97;;;2.47;;
41436;SDS011;27178;49.460;10.850;2023-05-29T02:18:20;5.35;;;3.10;;
41436;SDS011;27178;49.460;10.850;2023-05-29T02:20:50;5.40;;;2.80;;
41436;SDS011;27178;49.460;10.850;2023-05-29T02:23:19;2.92;;;2.60;;
41436;SDS011;27178;49.460;10.850;2023-05-29T02:25:47;3.85;;;2.95;;
41436;SDS011;27178;49.460;10.850;2023-05-29T02:28:16;4.18;;;2.78;;
41436;SDS011;27178;49.460;10.850;2023-05-29T02:30:44;3.15;;;2.40;;
41436;SDS011;27178;49.460;10.850;2023-05-29T02:33:12;2.85;;;2.65;;
41436;SDS011;27178;49.460;10.850;2023-05-29T02:35:41;4.20;;;2.80;;
41436;SDS011;27178;49.460;10.850;2023-05-29T02:38:11;4.05;;;2.78;;
41436;SDS011;27178;49.460;10.850;2023-05-29T02:40:39;2.50;;;2.30;;
41436;SDS011;27178;49.460;10.850;2023-05-29T02:43:09;3.38;;;2.70;;
41436;SDS011;27178;49.460;10.850;2023-05-29T02:45:39;5.18;;;2.75;;
41436;SDS011;27178;49.460;10.850;2023-05-29T02:48:08;3.67;;;2.90;;
41436;SDS011;27178;49.460;10.850;2023-05-29T02:50:36;3.42;;;2.55;;
41436;SDS011;27178;49.460;10.850;2023-05-29T02:53:05;2.85;;;2.55;;
41436;SDS011;27178;49.460;10.850;2023-05-29T02:55:35;2.63;;;2.33;;
41436;SDS011;27178;49.460;10.850;2023-05-29T02:58:03;3.65;;;3.00;;
41436;SDS011;27178;49.460;10.850;2023-05-29T03:00:31;4.40;;;2.88;;
41436;SDS011;27178;49.460;10.850;2023-05-29T03:02:59;3.15;;;2.50;;
41436;SDS011;27178;49.460;10.850;2023-05-29T03:05:28;3.40;;;2.80;;
41436;SDS011;27178;49.460;10.850;2023-05-29T03:07:56;3.17;;;2.80;;
41436;SDS011;27178;49.460;10.850;2023-05-29T03:10:25;3.22;;;2.83;;
41436;SDS011;27178;49.460;10.850;2023-05-29T03:12:55;3.50;;;3.20;;
41436;SDS011;27178;49.460;10.850;2023-05-29T03:15:23;3.25;;;2.72;;
41436;SDS011;27178;49.460;10.850;2023-05-29T03:17:51;3.10;;;2.75;;
41436;SDS011;27178;49.460;10.850;2023-05-29T03:20:20;3.63;;;3.10;;
41436;SDS011;27178;49.460;10.850;2023-05-29T03:22:48;3.40;;;2.92;;
41436;SDS011;27178;49.460;10.850;2023-05-29T03:25:17;6.13;;;3.25;;
41436;SDS011;27178;49.460;10.850;2023-05-29T03:27:46;4.10;;;2.85;;
41436;SDS011;27178;49.460;10.850;2023-05-29T03:30:16;3.08;;;2.85;;
41436;SDS011;27178;49.460;10.850;2023-05-29T03:32:45;4.18;;;3.33;;
41436;SDS011;27178;49.460;10.850;2023-05-29T03:35:14;3.60;;;3.30;;
41436;SDS011;27178;49.460;10.850;2023-05-29T03:37:42;3.50;;;3.10;;
41436;SDS011;27178;49.460;10.850;2023-05-29T03:40:11;3.20;;;2.90;;
41436;SDS011;27178;49.460;10.850;2023-05-29T03:42:40;3.42;;;3.03;;
41436;SDS011;27178;49.460;10.850;2023-05-29T03:45:09;3.17;;;2.88;;
41436;SDS011;27178;49.460;10.850;2023-05-29T03:47:39;3.45;;;2.83;;
41436;SDS011;27178;49.460;10.850;2023-05-29T03:50:08;3.88;;;3.35;;
41436;SDS011;27178;49.460;10.850;2023-05-29T03:52:40;3.53;;;3.20;;
41436;SDS011;27178;49.460;10.850;2023-05-29T03:55:09;3.60;;;3.10;;
41436;SDS011;27178;49.460;10.850;2023-05-29T03:57:41;5.63;;;3.08;;
41436;SDS011;27178;49.460;10.850;2023-05-29T04:00:10;6.25;;;3.10;;
41436;SDS011;27178;49.460;10.850;2023-05-29T04:02:40;3.50;;;2.90;;
41436;SDS011;27178;49.460;10.850;2023-05-29T04:05:09;3.33;;;3.03;;
41436;SDS011;27178;49.460;10.850;2023-05-29T04:07:39;3.30;;;3.00;;
41436;SDS011;27178;49.460;10.850;2023-05-29T04:10:08;4.03;;;3.17;;
41436;SDS011;27178;49.460;10.850;2023-05-29T04:12:37;3.33;;;3.03;;
41436;SDS011;27178;49.460;10.850;2023-05-29T04:15:06;3.25;;;2.95;;
41436;SDS011;27178;49.460;10.850;2023-05-29T04:17:35;4.70;;;3.13;;
41436;SDS011;27178;49.460;10.850;2023-05-29T04:20:05;4.38;;;3.22;;
41436;SDS011;27178;49.460;10.850;2023-05-29T04:22:35;3.83;;;2.90;;
41436;SDS011;27178;49.460;10.850;2023-05-29T04:25:04;4.18;;;2.88;;
41436;SDS011;27178;49.460;10.850;2023-05-29T04:27:33;4.72;;;3.20;;
41436;SDS011;27178;49.460;10.850;2023-05-29T04:30:04;4.18;;;3.00;;
41436;SDS011;27178;49.460;10.850;2023-05-29T04:32:33;3.50;;;3.05;;
41436;SDS011;27178;49.460;10.850;2023-05-29T04:35:04;3.35;;;3.05;;
41436;SDS011;27178;49.460;10.850;2023-05-29T04:37:33;4.03;;;3.15;;
41436;SDS011;27178;49.460;10.850;2023-05-29T04:40:05;3.55;;;3.25;;
41436;SDS011;27178;49.460;10.850;2023-05-29T04:42:36;4.38;;;3.47;;
41436;SDS011;27178;49.460;10.850;2023-05-29T04:45:06;4.40;;;3.20;;
41436;SDS011;27178;49.460;10.850;2023-05-29T04:47:36;3.53;;;3.22;;
41436;SDS011;27178;49.460;10.850;2023-05-29T04:50:11;3.47;;;3.17;;
41436;SDS011;27178;49.460;10.850;2023-05-29T04:52:40;4.72;;;3.33;;
41436;SDS011;27178;49.460;10.850;2023-05-29T04:55:10;5.15;;;3.67;;
41436;SDS011;27178;49.460;10.850;2023-05-29T04:57:38;8.23;;;3.40;;
41436;SDS011;27178;49.460;10.850;2023-05-29T05:00:07;6.28;;;3.40;;
41436;SDS011;27178;49.460;10.850;2023-05-29T05:02:41;3.42;;;3.13;;
41436;SDS011;27178;49.460;10.850;2023-05-29T05:05:12;3.53;;;3.17;;
41436;SDS011;27178;49.460;10.850;2023-05-29T05:07:40;6.00;;;3.50;;
41436;SDS011;27178;49.460;10.850;2023-05-29T05:10:09;3.42;;;3.13;;
41436;SDS011;27178;49.460;10.850;2023-05-29T05:12:38;3.05;;;2.75;;
41436;SDS011;27178;49.460;10.850;2023-05-29T05:15:07;4.03;;;3.50;;
41436;SDS011;27178;49.460;10.850;2023-05-29T05:17:36;4.53;;;3.05;;
41436;SDS011;27178;49.460;10.850;2023-05-29T05:20:05;3.20;;;2.90;;
41436;SDS011;27178;49.460;10.850;2023-05-29T05:22:36;3.20;;;2.90;;
41436;SDS011;27178;49.460;10.850;2023-05-29T05:25:05;3.33;;;3.03;;
41436;SDS011;27178;49.460;10.850;2023-05-29T05:27:34;3.00;;;2.80;;
41436;SDS011;27178;49.460;10.850;2023-05-29T05:30:02;3.58;;;2.92;;
41436;SDS011;27178;49.460;10.850;2023-05-29T05:32:31;4.38;;;3.40;;
41436;SDS011;27178;49.460;10.850;2023-05-29T05:34:59;3.42;;;3.00;;
41436;SDS011;27178;49.460;10.850;2023-05-29T05:37:29;4.00;;;3.25;;
41436;SDS011;27178;49.460;10.850;2023-05-29T05:39:59;3.03;;;2.72;;
41436;SDS011;27178;49.460;10.850;2023-05-29T05:42:27;3.33;;;2.97;;
41436;SDS011;27178;49.460;10.850;2023-05-29T05:44:58;3.17;;;2.83;;
41436;SDS011;27178;49.460;10.850;2023-05-29T05:47:26;3.33;;;2.80;;
41436;SDS011;27178;49.460;10.850;2023-05-29T05:49:55;4.78;;;3.30;;
41436;SDS011;27178;49.460;10.850;2023-05-29T05:52:24;3.80;;;3.40;;
41436;SDS011;27178;49.460;10.850;2023-05-29T05:54:57;3.58;;;2.95;;
41436;SDS011;27178;49.460;10.850;2023-05-29T05:57:26;3.88;;;3.10;;
41436;SDS011;27178;49.460;10.850;2023-05-29T05:59:55;4.00;;;2.67;;
41436;SDS011;27178;49.460;10.850;2023-05-29T06:02:23;3.42;;;2.75;;
41436;SDS011;27178;49.460;10.850;2023-05-29T06:04:52;3.22;;;2.92;;
41436;SDS011;27178;49.460;10.850;2023-05-29T06:07:20;4.13;;;3.00;;
41436;SDS011;27178;49.460;10.850;2023-05-29T06:09:49;3.80;;;3.38;;
41436;SDS011;27178;49.460;10.850;2023-05-29T06:12:17;3.78;;;2.78;;
41436;SDS011;27178;49.460;10.850;2023-05-29T06:14:47;3.50;;;3.20;;
41436;SDS011;27178;49.460;10.850;2023-05-29T06:17:16;3.65;;;3.33;;
41436;SDS011;27178;49.460;10.850;2023-05-29T06:19:48;4.07;;;2.80;;
41436;SDS011;27178;49.460;10.850;2023-05-29T06:22:18;3.78;;;3.10;;
41436;SDS011;27178;49.460;10.850;2023-05-29T06:24:46;5.72;;;3.17;;
41436;SDS011;27178;49.460;10.850;2023-05-29T06:27:15;3.83;;;2.90;;
41436;SDS011;27178;49.460;10.850;2023-05-29T06:29:44;3.05;;;2.72;;
41436;SDS011;27178;49.460;10.850;2023-05-29T06:32:14;3.20;;;2.72;;
41436;SDS011;27178;49.460;10.850;2023-05-29T06:34:43;3.03;;;2.63;;
41436;SDS011;27178;49.460;10.850;2023-05-29T06:37:11;4.53;;;2.60;;
41436;SDS011;27178;49.460;10.850;2023-05-29T06:39:39;3.95;;;2.88;;
41436;SDS011;27178;49.460;10.850;2023-05-29T06:42:11;3.15;;;2.75;;
41436;SDS011;27178;49.460;10.850;2023-05-29T06:44:39;3.85;;;2.58;;
41436;SDS011;27178;49.460;10.850;2023-05-29T06:47:09;3.50;;;2.67;;
41436;SDS011;27178;49.460;10.850;2023-05-29T06:49:38;5.15;;;2.90;;
41436;SDS011;27178;49.460;10.850;2023-05-29T06:52:06;4.22;;;2.75;;
41436;SDS011;27178;49.460;10.850;2023-05-29T06:54:35;3.25;;;2.45;;
41436;SDS011;27178;49.460;10.850;2023-05-29T06:57:03;3.47;;;2.50;;
41436;SDS011;27178;49.460;10.850;2023-05-29T06:59:36;3.97;;;3.00;;
41436;SDS011;27178;49.460;10.850;2023-05-29T07:02:05;4.75;;;2.78;;
41436;SDS011;27178;49.460;10.850;2023-05-29T07:04:36;5.60;;;2.67;;
41436;SDS011;27178;49.460;10.850;2023-05-29T07:07:05;5.03;;;2.58;;
41436;SDS011;27178;49.460;10.850;2023-05-29T07:09:33;4.20;;;2.42;;
41436;SDS011;27178;49.460;10.850;2023-05-29T07:12:01;3.50;;;2.42;;
41436;SDS011;27178;49.460;10.850;2023-05-29T07:14:30;5.50;;;2.60;;
41436;SDS011;27178;49.460;10.850;2023-05-29T07:16:59;2.45;;;2.20;;
41436;SDS011;27178;49.460;10.850;2023-05-29T07:19:27;5.00;;;2.50;;
41436;SDS011;27178;49.460;10.850;2023-05-29T07:21:57;3.08;;;2.80;;
41436;SDS011;27178;49.460;10.850;2023-05-29T07:24:25;3.90;;;2.80;;
41436;SDS011;27178;49.460;10.850;2023-05-29T07:26:54;3.05;;;2.67;;
41436;SDS011;27178;49.460;10.850;2023-05-29T07:29:23;3.40;;;2.28;;
41436;SDS011;27178;49.460;10.850;2023-05-29T07:31:51;3.58;;;2.78;;
41436;SDS011;27178;49.460;10.850;2023-05-29T07:34:20;3.08;;;2.78;;
41436;SDS011;27178;49.460;10.850;2023-05-29T07:37:00;3.83;;;2.53;;
41436;SDS011;27178;49.460;10.850;2023-05-29T07:39:30;3.72;;;2.80;;
41436;SDS011;27178;49.460;10.850;2023-05-29T07:41:59;3.50;;;2.70;;
41436;SDS011;27178;49.460;10.850;2023-05-29T07:44:28;3.35;;;2.47;;
41436;SDS011;27178;49.460;10.850;2023-05-29T07:46:57;7.13;;;2.97;;
41436;SDS011;27178;49.460;10.850;2023-05-29T07:49:25;4.28;;;2.40;;
41436;SDS011;27178;49.460;10.850;2023-05-29T07:51:54;3.00;;;2.55;;
41436;SDS011;27178;49.460;10.850;2023-05-29T07:54:24;2.55;;;2.35;;
41436;SDS011;27178;49.460;10.850;2023-05-29T07:56:52;2.95;;;2.50;;
41436;SDS011;27178;49.460;10.850;2023-05-29T07:59:21;2.33;;;2.13;;
41436;SDS011;27178;49.460;10.850;2023-05-29T08:01:50;3.42;;;2.50;;
41436;SDS011;27178;49.460;10.850;2023-05-29T08:04:18;2.80;;;2.60;;
41436;SDS011;27178;49.460;10.850;2023-05-29T08:06:47;2.83;;;2.60;;
41436;SDS011;27178;49.460;10.850;2023-05-29T08:09:16;3.00;;;2.47;;
41436;SDS011;27178;49.460;10.850;2023-05-29T08:11:46;3.03;;;2.42;;
41436;SDS011;27178;49.460;10.850;2023-05-29T08:14:15;2.72;;;2.53;;
41436;SDS011;27178;49.460;10.850;2023-05-29T08:16:43;2.92;;;2.63;;
41436;SDS011;27178;49.460;10.850;2023-05-29T08:19:12;3.90;;;2.40;;
41436;SDS011;27178;49.460;10.850;2023-05-29T08:21:40;3.50;;;2.25;;
41436;SDS011;27178;49.460;10.850;2023-05-29T08:24:08;2.92;;;2.50;;
41436;SDS011;27178;49.460;10.850;2023-05-29T08:26:37;3.25;;;2.25;;
41436;SDS011;27178;49.460;10.850;2023-05-29T08:29:06;3.42;;;2.35;;
41436;SDS011;27178;49.460;10.850;2023-05-29T08:31:35;2.92;;;2.47;;
41436;SDS011;27178;49.460;10.850;2023-05-29T08:34:03;4.85;;;2.78;;
41436;SDS011;27178;49.460;10.850;2023-05-29T08:36:33;2.67;;;2.47;;
41436;SDS011;27178;49.460;10.850;2023-05-29T08:39:01;2.42;;;2.17;;
41436;SDS011;27178;49.460;10.850;2023-05-29T08:41:33;3.33;;;2.60;;
41436;SDS011;27178;49.460;10.850;2023-05-29T08:44:15;3.97;;;2.28;;
41436;SDS011;27178;49.460;10.850;2023-05-29T08:46:50;2.88;;;2.35;;
41436;SDS011;27178;49.460;10.850;2023-05-29T08:49:22;6.65;;;2.90;;
41436;SDS011;27178;49.460;10.850;2023-05-29T08:51:53;2.85;;;2.50;;
41436;SDS011;27178;49.460;10.850;2023-05-29T08:54:30;4.25;;;2.40;;
41436;SDS011;27178;49.460;10.850;2023-05-29T08:57:00;3.00;;;2.30;;
41436;SDS011;27178;49.460;10.850;2023-05-29T08:59:31;4.30;;;2.70;;
41436;SDS011;27178;49.460;10.850;2023-05-29T09:02:01;3.05;;;2.47;;
41436;SDS011;27178;49.460;10.850;2023-05-29T09:04:30;3.47;;;2.70;;
41436;SDS011;27178;49.460;10.850;2023-05-29T09:06:58;3.40;;;3.10;;
41436;SDS011;27178;49.460;10.850;2023-05-29T09:09:30;5.38;;;2.65;;
41436;SDS011;27178;49.460;10.850;2023-05-29T09:11:59;2.40;;;2.20;;
41436;SDS011;27178;49.460;10.850;2023-05-29T09:14:34;2.70;;;2.50;;
41436;SDS011;27178;49.460;10.850;2023-05-29T09:17:04;5.25;;;3.08;;
41436;SDS011;27178;49.460;10.850;2023-05-29T09:19:35;3.97;;;2.65;;
41436;SDS011;27178;49.460;10.850;2023-05-29T09:22:05;3.13;;;2.60;;
41436;SDS011;27178;49.460;10.850;2023-05-29T09:24:35;3.47;;;2.78;;
41436;SDS011;27178;49.460;10.850;2023-05-29T09:27:05;2.40;;;2.20;;
41436;SDS011;27178;49.460;10.850;2023-05-29T09:29:38;5.25;;;2.60;;
41436;SDS011;27178;49.460;10.850;2023-05-29T09:32:08;2.70;;;2.38;;
41436;SDS011;27178;49.460;10.850;2023-05-29T09:34:37;2.20;;;1.90;;
41436;SDS011;27178;49.460;10.850;2023-05-29T09:37:06;2.65;;;2.20;;
41436;SDS011;27178;49.460;10.850;2023-05-29T09:39:45;2.78;;;2.20;;
41436;SDS011;27178;49.460;10.850;2023-05-29T09:42:15;3.03;;;1.90;;
41436;SDS011;27178;49.460;10.850;2023-05-29T09:44:46;2.75;;;2.50;;
41436;SDS011;27178;49.460;10.850;2023-05-29T09:47:18;4.25;;;2.55;;
41436;SDS011;27178;49.460;10.850;2023-05-29T09:49:47;3.53;;;2.58;;
41436;SDS011;27178;49.460;10.850;2023-05-29T09:52:20;4.93;;;2.70;;
41436;SDS011;27178;49.460;10.850;2023-05-29T09:54:50;4.15;;;2.50;;
41436;SDS011;27178;49.460;10.850;2023-05-29T09:57:19;5.75;;;2.33;;
41436;SDS011;27178;49.460;10.850;2023-05-29T09:59:51;3.85;;;2.33;;
41436;SDS011;27178;49.460;10.850;2023-05-29T10:02:20;2.88;;;2.58;;
41436;SDS011;27178;49.460;10.850;2023-05-29T10:04:49;2.53;;;2.33;;
41436;SDS011;27178;49.460;10.850;2023-05-29T10:07:20;2.63;;;2.38;;
41436;SDS011;27178;49.460;10.850;2023-05-29T10:09:55;2.38;;;2.17;;
41436;SDS011;27178;49.460;10.850;2023-05-29T10:12:28;3.13;;;2.40;;
41436;SDS011;27178;49.460;10.850;2023-05-29T10:14:59;4.75;;;2.15;;
41436;SDS011;27178;49.460;10.850;2023-05-29T10:17:32;2.88;;;2.40;;
41436;SDS011;27178;49.460;10.850;2023-05-29T10:20:02;2.38;;;2.22;;
41436;SDS011;27178;49.460;10.850;2023-05-29T10:22:33;2.95;;;2.47;;
41436;SDS011;27178;49.460;10.850;2023-05-29T10:25:05;2.42;;;2.10;;
41436;SDS011;27178;49.460;10.850;2023-05-29T10:27:34;2.75;;;2.47;;
41436;SDS011;27178;49.460;10.850;2023-05-29T10:30:06;3.65;;;2.40;;
41436;SDS011;27178;49.460;10.850;2023-05-29T10:32:42;2.65;;;2.45;;
41436;SDS011;27178;49.460;10.850;2023-05-29T10:35:22;3.08;;;2.42;;
41436;SDS011;27178;49.460;10.850;2023-05-29T10:37:59;4.28;;;2.42;;
41436;SDS011;27178;49.460;10.850;2023-05-29T10:40:36;2.50;;;2.30;;
41436;SDS011;27178;49.460;10.850;2023-05-29T10:43:05;2.88;;;2.67;;
41436;SDS011;27178;49.460;10.850;2023-05-29T10:48:38;2.75;;;2.42;;
41436;SDS011;27178;49.460;10.850;2023-05-29T10:51:08;3.58;;;2.55;;
41436;SDS011;27178;49.460;10.850;2023-05-29T10:53:52;2.70;;;2.40;;
41436;SDS011;27178;49.460;10.850;2023-05-29T10:56:22;2.65;;;2.45;;
41436;SDS011;27178;49.460;10.850;2023-05-29T10:58:59;2.78;;;2.45;;
41436;SDS011;27178;49.460;10.850;2023-05-29T11:01:30;2.33;;;2.03;;
41436;SDS011;27178;49.460;10.850;2023-05-29T11:06:58;2.55;;;2.25;;
41436;SDS011;27178;49.460;10.850;2023-05-29T11:09:28;2.45;;;2.25;;
41436;SDS011;27178;49.460;10.850;2023-05-29T11:12:13;2.53;;;2.33;;
41436;SDS011;27178;49.460;10.850;2023-05-29T11:14:55;8.98;;;2.08;;
41436;SDS011;27178;49.460;10.850;2023-05-29T11:17:42;3.05;;;2.30;;
41436;SDS011;27178;49.460;10.850;2023-05-29T11:20:27;2.58;;;2.38;;
41436;SDS011;27178;49.460;10.850;2023-05-29T11:23:03;2.92;;;2.28;;
41436;SDS011;27178;49.460;10.850;2023-05-29T11:25:35;2.17;;;1.95;;
41436;SDS011;27178;49.460;10.850;2023-05-29T11:28:04;2.42;;;2.13;;
41436;SDS011;27178;49.460;10.850;2023-05-29T11:30:41;2.55;;;2.22;;
41436;SDS011;27178;49.460;10.850;2023-05-29T11:33:18;2.58;;;2.38;;
41436;SDS011;27178;49.460;10.850;2023-05-29T11:35:55;3.10;;;2.17;;
41436;SDS011;27178;49.460;10.850;2023-05-29T11:38:25;3.10;;;2.58;;
41436;SDS011;27178;49.460;10.850;2023-05-29T11:40:54;3.78;;;2.53;;
41436;SDS011;27178;49.460;10.850;2023-05-29T11:43:23;2.85;;;2.13;;
41436;SDS011;27178;49.460;10.850;2023-05-29T11:45:52;2.17;;;2.00;;
41436;SDS011;27178;49.460;10.850;2023-05-29T11:48:23;4.85;;;2.05;;
41436;SDS011;27178;49.460;10.850;2023-05-29T11:50:51;2.42;;;2.22;;
41436;SDS011;27178;49.460;10.850;2023-05-29T11:53:20;2.20;;;2.10;;
41436;SDS011;27178;49.460;10.850;2023-05-29T11:55:49;3.03;;;2.17;;
41436;SDS011;27178;49.460;10.850;2023-05-29T11:58:17;2.33;;;2.13;;
41436;SDS011;27178;49.460;10.850;2023-05-29T12:00:47;3.95;;;2.03;;
41436;SDS011;27178;49.460;10.850;2023-05-29T12:03:17;3.47;;;2.05;;
41436;SDS011;27178;49.460;10.850;2023-05-29T12:05:47;2.75;;;2.42;;
41436;SDS011;27178;49.460;10.850;2023-05-29T12:08:20;2.65;;;2.45;;
41436;SDS011;27178;49.460;10.850;2023-05-29T12:10:50;4.25;;;2.58;;
41436;SDS011;27178;49.460;10.850;2023-05-29T12:13:19;2.40;;;2.17;;
41436;SDS011;27178;49.460;10.850;2023-05-29T12:15:49;4.65;;;2.83;;
41436;SDS011;27178;49.460;10.850;2023-05-29T12:18:21;3.33;;;2.58;;
41436;SDS011;27178;49.460;10.850;2023-05-29T12:20:51;2.53;;;2.33;;
41436;SDS011;27178;49.460;10.850;2023-05-29T12:23:24;2.15;;;1.95;;
41436;SDS011;27178;49.460;10.850;2023-05-29T12:25:53;3.75;;;2.25;;
41436;SDS011;27178;49.460;10.850;2023-05-29T12:28:22;2.33;;;2.13;;
41436;SDS011;27178;49.460;10.850;2023-05-29T12:30:50;2.40;;;2.20;;
41436;SDS011;27178;49.460;10.850;2023-05-29T12:33:29;2.35;;;2.15;;
41436;SDS011;27178;49.460;10.850;2023-05-29T12:36:03;2.40;;;2.17;;
41436;SDS011;27178;49.460;10.850;2023-05-29T12:38:33;2.50;;;2.08;;
41436;SDS011;27178;49.460;10.850;2023-05-29T12:41:21;4.25;;;2.20;;
41436;SDS011;27178;49.460;10.850;2023-05-29T12:43:53;2.30;;;2.10;;
41436;SDS011;27178;49.460;10.850;2023-05-29T12:46:23;2.03;;;1.88;;
41436;SDS011;27178;49.460;10.850;2023-05-29T12:48:53;3.15;;;2.15;;
41436;SDS011;27178;49.460;10.850;2023-05-29T12:51:24;2.20;;;2.03;;
41436;SDS011;27178;49.460;10.850;2023-05-29T12:53:53;2.28;;;2.08;;
41436;SDS011;27178;49.460;10.850;2023-05-29T12:56:23;2.10;;;2.00;;
41436;SDS011;27178;49.460;10.850;2023-05-29T12:58:53;2.40;;;2.10;;
41436;SDS011;27178;49.460;10.850;2023-05-29T13:01:21;3.70;;;2.05;;
41436;SDS011;27178;49.460;10.850;2023-05-29T13:03:50;2.38;;;2.17;;
41436;SDS011;27178;49.460;10.850;2023-05-29T13:06:19;4.82;;;2.30;;
41436;SDS011;27178;49.460;10.850;2023-05-29T13:08:49;2.22;;;2.03;;
41436;SDS011;27178;49.460;10.850;2023-05-29T13:11:17;1.98;;;1.85;;
41436;SDS011;27178;49.460;10.850;2023-05-29T13:13:46;2.15;;;1.95;;
41436;SDS011;27178;49.460;10.850;2023-05-29T13:16:15;4.15;;;2.10;;
41436;SDS011;27178;49.460;10.850;2023-05-29T13:18:44;2.35;;;2.15;;
41436;SDS011;27178;49.460;10.850;2023-05-29T13:21:13;2.13;;;1.92;;
41436;SDS011;27178;49.460;10.850;2023-05-29T13:23:42;2.50;;;2.22;;
41436;SDS011;27178;49.460;10.850;2023-05-29T13:26:11;2.75;;;2.20;;
41436;SDS011;27178;49.460;10.850;2023-05-29T13:28:39;3.33;;;1.98;;
41436;SDS011;27178;49.460;10.850;2023-05-29T13:31:08;3.25;;;2.05;;
41436;SDS011;27178;49.460;10.850;2023-05-29T13:33:36;2.40;;;2.20;;
41436;SDS011;27178;49.460;10.850;2023-05-29T13:36:05;2.30;;;2.10;;
41436;SDS011;27178;49.460;10.850;2023-05-29T13:38:33;4.60;;;2.10;;
41436;SDS011;27178;49.460;10.850;2023-05-29T13:41:02;2.45;;;2.10;;
41436;SDS011;27178;49.460;10.850;2023-05-29T13:43:32;3.67;;;2.10;;
41436;SDS011;27178;49.460;10.850;2023-05-29T13:46:10;3.55;;;2.28;;
41436;SDS011;27178;49.460;10.850;2023-05-29T13:48:39;2.15;;;1.98;;
41436;SDS011;27178;49.460;10.850;2023-05-29T13:51:07;1.85;;;1.75;;
41436;SDS011;27178;49.460;10.850;2023-05-29T13:53:36;4.00;;;2.10;;
41436;SDS011;27178;49.460;10.850;2023-05-29T13:56:04;2.15;;;1.95;;
41436;SDS011;27178;49.460;10.850;2023-05-29T13:58:34;1.95;;;1.80;;
41436;SDS011;27178;49.460;10.850;2023-05-29T14:01:02;2.20;;;1.98;;
41436;SDS011;27178;49.460;10.850;2023-05-29T14:03:31;2.63;;;1.85;;
41436;SDS011;27178;49.460;10.850;2023-05-29T14:06:00;2.20;;;2.00;;
41436;SDS011;27178;49.460;10.850;2023-05-29T14:08:29;2.50;;;2.30;;
41436;SDS011;27178;49.460;10.850;2023-05-29T14:10:57;1.83;;;1.73;;
41436;SDS011;27178;49.460;10.850;2023-05-29T14:13:25;2.13;;;1.92;;
41436;SDS011;27178;49.460;10.850;2023-05-29T14:15:55;1.88;;;1.77;;
41436;SDS011;27178;49.460;10.850;2023-05-29T14:18:24;2.20;;;2.00;;
41436;SDS011;27178;49.460;10.850;2023-05-29T14:20:53;3.38;;;2.00;;
41436;SDS011;27178;49.460;10.850;2023-05-29T14:23:21;2.05;;;1.95;;
41436;SDS011;27178;49.460;10.850;2023-05-29T14:25:49;2.10;;;2.00;;
41436;SDS011;27178;49.460;10.850;2023-05-29T14:28:19;2.20;;;2.00;;
41436;SDS011;27178;49.460;10.850;2023-05-29T14:30:47;2.22;;;2.00;;
41436;SDS011;27178;49.460;10.850;2023-05-29T14:33:17;4.20;;;2.10;;
41436;SDS011;27178;49.460;10.850;2023-05-29T14:35:45;3.22;;;1.85;;
41436;SDS011;27178;49.460;10.850;2023-05-29T14:38:14;3.78;;;2.47;;
41436;SDS011;27178;49.460;10.850;2023-05-29T14:40:43;2.30;;;2.00;;
41436;SDS011;27178;49.460;10.850;2023-05-29T14:43:22;2.10;;;2.00;;
41436;SDS011;27178;49.460;10.850;2023-05-29T14:45:51;2.47;;;2.28;;
41436;SDS011;27178;49.460;10.850;2023-05-29T14:48:21;2.20;;;2.00;;
41436;SDS011;27178;49.460;10.850;2023-05-29T14:50:49;2.50;;;2.28;;
41436;SDS011;27178;49.460;10.850;2023-05-29T14:53:17;2.15;;;1.95;;
41436;SDS011;27178;49.460;10.850;2023-05-29T14:55:47;5.32;;;2.50;;
41436;SDS011;27178;49.460;10.850;2023-05-29T14:58:16;2.65;;;2.30;;
41436;SDS011;27178;49.460;10.850;2023-05-29T15:00:44;2.30;;;2.10;;